createdAt,value
2018-06-05T00:00:43.257Z,92954.69
2018-06-05T00:03:11.225Z,92957.78
2018-06-05T00:05:39.216Z,92945.34
2018-06-05T00:08:07.194Z,92943.25
2018-06-05T00:10:35.348Z,92944.67
2018-06-05T00:13:03.368Z,92939.94
2018-06-05T00:15:31.344Z,92937.58
2018-06-05T00:17:59.378Z,92942.58
2018-06-05T00:20:27.425Z,92946.83
2018-06-05T00:22:55.540Z,92944.70
2018-06-05T00:25:23.585Z,92942.09
2018-06-05T00:27:51.566Z,92945.09
2018-06-05T00:30:19.586Z,92941.67
2018-06-05T00:32:47.523Z,92942.73
2018-06-05T00:35:15.602Z,92943.30
2018-06-05T00:37:43.722Z,92944.98
2018-06-05T00:40:11.724Z,92945.31
2018-06-05T00:42:39.791Z,92944.09
2018-06-05T00:45:07.721Z,92943.03
2018-06-05T00:47:35.759Z,92950.26
2018-06-05T00:50:03.771Z,92951.20
2018-06-05T00:52:31.758Z,92948.71
2018-06-05T00:54:59.804Z,92941.37
2018-06-05T00:57:27.829Z,92946.59
2018-06-05T00:59:55.792Z,92940.34
2018-06-05T01:02:23.816Z,92936.91
2018-06-05T01:04:51.796Z,92935.14
2018-06-05T01:07:19.955Z,92940.39
2018-06-05T01:09:47.904Z,92941.12
2018-06-05T01:12:15.880Z,92942.91
2018-06-05T01:14:43.979Z,92944.48
2018-06-05T01:17:12.004Z,92935.25
2018-06-05T01:19:40.089Z,92935.27
2018-06-05T01:22:08.127Z,92934.09
2018-06-05T01:24:36.079Z,92940.49
2018-06-05T01:27:04.345Z,92937.91
2018-06-05T01:29:32.407Z,92938.24
2018-06-05T01:32:00.439Z,92941.12
2018-06-05T01:34:28.508Z,92936.02
2018-06-05T01:36:56.560Z,92931.16
2018-06-05T01:39:24.587Z,92934.95
2018-06-05T01:41:52.601Z,92934.73
2018-06-05T01:44:20.615Z,92934.38
2018-06-05T01:46:48.630Z,92934.97
2018-06-05T01:49:16.620Z,92935.96
2018-06-05T01:51:44.600Z,92936.66
2018-06-05T01:54:12.615Z,92932.75
2018-06-05T01:56:40.566Z,92935.26
2018-06-05T01:59:08.555Z,92934.08
2018-06-05T02:01:36.542Z,92929.68
2018-06-05T02:04:04.616Z,92937.16
2018-06-05T02:06:32.657Z,92935.27
2018-06-05T02:09:00.815Z,92934.09
2018-06-05T02:11:28.884Z,92931.59
2018-06-05T02:13:56.891Z,92932.80
2018-06-05T02:16:24.891Z,92930.92
2018-06-05T02:18:52.884Z,92939.83
2018-06-05T02:21:20.916Z,92935.44
2018-06-05T02:23:48.996Z,92941.58
2018-06-05T02:26:17.055Z,92942.44
2018-06-05T02:28:45.081Z,92950.61
2018-06-05T02:31:13.139Z,92949.30
2018-06-05T02:33:41.120Z,92946.11
2018-06-05T02:36:09.135Z,92946.27
2018-06-05T02:38:37.211Z,92947.56
2018-06-05T02:41:05.322Z,92955.12
2018-06-05T02:43:33.327Z,92952.19
2018-06-05T02:46:01.310Z,92957.73
2018-06-05T02:48:29.327Z,92958.22
2018-06-05T02:50:57.307Z,92958.10
2018-06-05T02:53:25.442Z,92954.91
2018-06-05T02:55:53.492Z,92959.63
2018-06-05T02:58:21.569Z,92959.40
2018-06-05T03:00:49.562Z,92954.30
2018-06-05T03:03:17.534Z,92948.27
2018-06-05T03:05:45.535Z,92943.05
2018-06-05T03:08:13.524Z,92940.89
2018-06-05T03:10:41.620Z,92948.80
2018-06-05T03:13:09.663Z,92939.45
2018-06-05T03:15:37.701Z,92943.46
2018-06-05T03:18:05.835Z,92955.53
2018-06-05T03:20:33.866Z,92955.03
2018-06-05T03:23:01.912Z,92963.07
2018-06-05T03:25:29.910Z,92968.53
2018-06-05T03:27:57.860Z,92974.55
2018-06-05T03:30:25.806Z,92967.20
2018-06-05T03:32:53.795Z,92973.80
2018-06-05T03:35:21.809Z,92970.59
2018-06-05T03:37:49.889Z,92971.38
2018-06-05T03:40:17.907Z,92973.44
2018-06-05T03:42:45.956Z,92973.48
2018-06-05T03:45:14.687Z,92979.45
2018-06-05T03:47:42.709Z,92973.47
2018-06-05T03:50:10.682Z,92978.11
2018-06-05T03:52:38.725Z,92974.33
2018-06-05T03:55:06.767Z,92978.03
2018-06-05T03:57:34.890Z,92977.06
2018-06-05T04:00:03.095Z,92977.06
2018-06-05T04:02:31.073Z,92978.78
2018-06-05T04:04:59.138Z,92981.37
2018-06-05T04:07:27.151Z,92984.02
2018-06-05T04:09:55.208Z,92991.66
2018-06-05T04:12:23.164Z,92987.72
2018-06-05T04:14:51.232Z,92992.52
2018-06-05T04:17:19.491Z,92994.83
2018-06-05T04:19:47.808Z,92995.63
2018-06-05T04:22:15.993Z,92999.87
2018-06-05T04:24:43.978Z,92999.87
2018-06-05T04:27:12.160Z,93006.21
2018-06-05T04:29:40.213Z,93007.85
2018-06-05T04:32:08.403Z,93010.06
2018-06-05T04:34:36.485Z,93003.34
2018-06-05T04:37:04.449Z,93003.75
2018-06-05T04:39:32.535Z,93009.42
2018-06-05T04:42:00.550Z,93006.50
2018-06-05T04:44:35.208Z,93013.39
2018-06-05T04:47:03.293Z,93011.17
2018-06-05T04:49:31.400Z,93015.82
2018-06-05T04:51:59.459Z,93013.45
2018-06-05T04:54:27.472Z,93021.02
2018-06-05T04:56:55.497Z,93023.62
2018-06-05T04:59:23.471Z,93024.50
2018-06-05T05:01:51.445Z,93016.20
2018-06-05T05:04:19.515Z,93013.56
2018-06-05T05:06:47.550Z,93021.20
2018-06-05T05:09:15.993Z,93019.33
2018-06-05T05:11:44.018Z,93025.27
2018-06-05T05:14:12.060Z,93033.02
2018-06-05T05:16:40.245Z,93035.78
2018-06-05T05:19:08.354Z,93037.72
2018-06-05T05:21:36.343Z,93041.02
2018-06-05T05:24:04.450Z,93035.77
2018-06-05T05:26:32.445Z,93036.77
2018-06-05T05:29:00.509Z,93033.45
2018-06-05T05:31:28.568Z,93027.55
2018-06-05T05:33:56.624Z,93037.27
2018-06-05T05:36:24.808Z,93038.42
2018-06-05T05:38:52.919Z,93038.39
2018-06-05T05:41:20.961Z,93038.86
2018-06-05T05:43:49.002Z,93036.30
2018-06-05T05:46:17.022Z,93037.34
2018-06-05T05:48:45.008Z,93037.12
2018-06-05T05:51:13.077Z,93037.38
2018-06-05T05:53:41.223Z,93037.80
2018-06-05T05:56:09.235Z,93039.05
2018-06-05T05:58:37.280Z,93038.13
2018-06-05T06:01:05.445Z,93037.41
2018-06-05T06:03:33.487Z,93037.39
2018-06-05T06:06:01.560Z,93036.84
2018-06-05T06:08:29.785Z,93040.10
2018-06-05T06:10:57.917Z,93032.81
2018-06-05T06:13:25.977Z,93034.19
2018-06-05T06:15:54.159Z,93033.55
2018-06-05T06:18:22.236Z,93032.48
2018-06-05T06:20:50.355Z,93035.17
2018-06-05T06:23:18.562Z,93033.81
2018-06-05T06:25:46.591Z,93031.50
2018-06-05T06:28:14.736Z,93031.78
2018-06-05T06:30:42.841Z,93027.41
2018-06-05T06:33:10.871Z,93029.59
2018-06-05T06:35:38.996Z,93030.23
2018-06-05T06:38:06.999Z,93041.98
2018-06-05T06:40:35.069Z,93030.51
2018-06-05T06:43:03.497Z,93030.05
2018-06-05T06:45:31.613Z,93028.25
2018-06-05T06:47:59.625Z,93028.58
2018-06-05T06:50:27.809Z,93022.42
2018-06-05T06:52:55.831Z,93026.58
2018-06-05T06:55:23.831Z,93025.55
2018-06-05T06:57:52.777Z,93024.64
2018-06-05T07:00:21.227Z,93021.30
2018-06-05T07:02:49.688Z,93016.52
2018-06-05T07:05:18.032Z,93017.57
2018-06-05T07:07:46.419Z,93011.55
2018-06-05T07:10:14.794Z,93014.30
2018-06-05T07:12:43.104Z,93015.55
2018-06-05T07:15:11.632Z,93015.03
2018-06-05T07:17:40.076Z,93014.49
2018-06-05T07:20:08.400Z,93014.11
2018-06-05T07:22:36.728Z,93014.28
2018-06-05T07:25:05.082Z,93009.34
2018-06-05T07:27:33.549Z,92996.18
2018-06-05T07:30:02.084Z,92996.73
2018-06-05T07:32:30.472Z,92990.40
2018-06-05T07:34:58.884Z,92993.74
2018-06-05T07:37:27.298Z,92994.45
2018-06-05T07:39:56.314Z,92992.16
2018-06-05T07:42:25.232Z,92999.00
2018-06-05T07:44:54.127Z,92992.80
2018-06-05T07:47:22.554Z,92987.22
2018-06-05T07:49:50.985Z,92993.81
2018-06-05T07:52:19.398Z,92995.27
2018-06-05T07:54:47.838Z,93001.14
2018-06-05T07:57:16.178Z,92998.59
2018-06-05T07:59:44.545Z,93001.61
2018-06-05T08:02:12.970Z,93000.98
2018-06-05T08:04:42.881Z,93000.84
2018-06-05T08:07:11.485Z,92997.72
2018-06-05T08:09:39.936Z,92996.34
2018-06-05T08:12:09.059Z,92998.17
2018-06-05T08:14:37.591Z,92990.75
2018-06-05T08:17:05.981Z,92989.03
2018-06-05T08:19:34.319Z,92994.45
2018-06-05T08:22:02.796Z,92989.66
2018-06-05T08:24:31.224Z,92994.53
2018-06-05T08:26:59.717Z,92994.23
2018-06-05T08:29:28.021Z,92998.13
2018-06-05T08:31:56.467Z,92990.42
2018-06-05T08:34:25.019Z,92995.04
2018-06-05T08:36:53.514Z,92987.91
2018-06-05T08:39:21.816Z,92991.67
2018-06-05T08:41:50.156Z,92983.91
2018-06-05T08:44:18.507Z,92980.70
2018-06-05T08:46:47.487Z,92981.81
2018-06-05T08:49:16.899Z,92986.28
2018-06-05T08:51:46.228Z,92981.86
2018-06-05T08:54:15.315Z,92970.84
2018-06-05T08:56:43.820Z,92978.02
2018-06-05T08:59:12.178Z,92972.61
2018-06-05T09:01:40.605Z,92967.05
2018-06-05T09:04:09.023Z,92966.06
2018-06-05T09:06:37.460Z,92973.76
2018-06-05T09:09:08.027Z,92975.10
2018-06-05T09:11:36.455Z,92969.08
2018-06-05T09:14:05.135Z,92973.47
2018-06-05T09:16:34.003Z,92968.32
2018-06-05T09:19:03.297Z,92975.80
2018-06-05T09:21:31.901Z,92962.56
2018-06-05T09:24:00.259Z,92960.12
2018-06-05T09:26:28.718Z,92957.69
2018-06-05T09:28:57.329Z,92953.93
2018-06-05T09:31:25.760Z,92952.19
2018-06-05T09:33:54.167Z,92944.38
2018-06-05T09:36:22.575Z,92944.23
2018-06-05T09:38:51.013Z,92942.05
2018-06-05T09:41:19.517Z,92952.66
2018-06-05T09:43:47.831Z,92957.21
2018-06-05T09:46:16.212Z,92949.70
2018-06-05T09:48:44.692Z,92946.27
2018-06-05T09:51:13.004Z,92941.80
2018-06-05T09:53:41.889Z,92937.44
2018-06-05T09:56:10.287Z,92937.14
2018-06-05T09:58:38.555Z,92934.39
2018-06-05T10:01:06.769Z,92933.70
2018-06-05T10:03:34.796Z,92929.59
2018-06-05T10:06:02.900Z,92926.48
2018-06-05T10:08:31.430Z,92916.61
2018-06-05T10:10:59.497Z,92932.36
2018-06-05T10:13:27.692Z,92944.27
2018-06-05T10:15:55.751Z,92942.49
2018-06-05T10:18:23.827Z,92930.59
2018-06-05T10:20:51.901Z,92928.96
2018-06-05T10:23:19.931Z,92925.02
2018-06-05T10:25:48.070Z,92933.09
2018-06-05T10:28:16.304Z,92931.25
2018-06-05T10:30:44.725Z,92941.45
2018-06-05T10:33:12.977Z,92950.72
2018-06-05T10:35:41.534Z,92961.34
2018-06-05T10:38:10.090Z,92971.78
2018-06-05T10:40:38.226Z,92976.94
2018-06-05T10:43:06.344Z,92956.63
2018-06-05T10:45:34.590Z,92947.55
2018-06-05T10:48:02.879Z,92955.05
2018-06-05T10:50:31.104Z,92949.47
2018-06-05T10:52:59.179Z,92944.81
2018-06-05T10:55:27.373Z,92936.14
2018-06-05T10:57:55.766Z,92930.39
2018-06-05T11:00:24.268Z,92940.12
2018-06-05T11:02:52.564Z,92935.45
2018-06-05T11:05:21.197Z,92933.80
2018-06-05T11:07:49.618Z,92927.56
2018-06-05T11:10:17.781Z,92927.42
2018-06-05T11:12:46.255Z,92922.41
2018-06-05T11:15:14.402Z,92916.05
2018-06-05T11:17:42.492Z,92912.30
2018-06-05T11:20:10.893Z,92914.44
2018-06-05T11:22:39.742Z,92922.81
2018-06-05T11:25:08.119Z,92911.04
2018-06-05T11:27:36.449Z,92905.19
2018-06-05T11:30:05.351Z,92896.55
2018-06-05T11:32:33.867Z,92893.63
2018-06-05T11:35:02.205Z,92891.22
2018-06-05T11:37:30.589Z,92893.16
2018-06-05T11:39:59.029Z,92893.91
2018-06-05T11:42:27.449Z,92893.84
2018-06-05T11:44:55.808Z,92895.91
2018-06-05T11:47:24.108Z,92884.47
2018-06-05T11:49:52.975Z,92882.41
2018-06-05T11:52:21.301Z,92876.27
2018-06-05T11:54:50.045Z,92878.11
2018-06-05T11:57:18.473Z,92869.80
2018-06-05T11:59:46.990Z,92867.46
2018-06-05T12:02:15.394Z,92862.42
2018-06-05T12:04:44.017Z,92862.20
2018-06-05T12:07:12.418Z,92863.64
2018-06-05T12:09:40.757Z,92863.62
2018-06-05T12:12:09.152Z,92853.78
2018-06-05T12:14:37.591Z,92850.19
2018-06-05T12:17:05.974Z,92850.50
2018-06-05T12:19:34.313Z,92852.68
2018-06-05T12:22:02.772Z,92858.79
2018-06-05T12:24:31.325Z,92859.22
2018-06-05T12:26:59.807Z,92859.30
2018-06-05T12:29:28.209Z,92860.03
2018-06-05T12:31:56.678Z,92855.61
2018-06-05T12:34:24.987Z,92852.19
2018-06-05T12:36:53.451Z,92849.38
2018-06-05T12:39:21.918Z,92847.67
2018-06-05T12:41:50.543Z,92843.14
2018-06-05T12:44:18.857Z,92851.75
2018-06-05T12:46:47.197Z,92848.48
2018-06-05T12:49:15.519Z,92846.33
2018-06-05T12:51:43.970Z,92847.44
2018-06-05T12:54:12.504Z,92847.32
2018-06-05T12:56:40.850Z,92844.45
2018-06-05T12:59:09.116Z,92838.35
2018-06-05T13:01:37.435Z,92833.56
2018-06-05T13:04:06.057Z,92832.30
2018-06-05T13:06:34.548Z,92833.59
2018-06-05T13:09:03.881Z,92829.64
2018-06-05T13:11:32.404Z,92829.13
2018-06-05T13:14:00.770Z,92829.48
2018-06-05T13:16:29.129Z,92824.68
2018-06-05T13:18:57.535Z,92827.24
2018-06-05T13:21:26.156Z,92825.30
2018-06-05T13:23:54.483Z,92827.47
2018-06-05T13:26:22.865Z,92829.45
2018-06-05T13:28:51.216Z,92828.76
2018-06-05T13:31:19.532Z,92828.72
2018-06-05T13:33:47.923Z,92823.98
2018-06-05T13:36:16.260Z,92831.59
2018-06-05T13:38:44.838Z,92832.09
2018-06-05T13:41:13.283Z,92829.91
2018-06-05T13:43:41.682Z,92828.37
2018-06-05T13:46:10.960Z,92827.70
2018-06-05T13:48:39.242Z,92825.31
2018-06-05T13:51:07.571Z,92822.36
2018-06-05T13:53:35.899Z,92815.70
2018-06-05T13:56:04.165Z,92816.44
2018-06-05T13:58:32.494Z,92808.31
2018-06-05T14:01:00.843Z,92806.95
2018-06-05T14:03:29.168Z,92794.84
2018-06-05T14:05:57.397Z,92801.66
2018-06-05T14:08:25.766Z,92796.78
2018-06-05T14:10:54.095Z,92800.70
2018-06-05T14:13:22.393Z,92801.08
2018-06-05T14:15:50.767Z,92800.00
2018-06-05T14:18:19.069Z,92801.83
2018-06-05T14:20:47.119Z,92806.67
2018-06-05T14:23:15.267Z,92801.26
2018-06-05T14:25:43.268Z,92808.37
2018-06-05T14:28:11.390Z,92814.91
2018-06-05T14:30:39.663Z,92810.67
2018-06-05T14:33:07.852Z,92806.25
2018-06-05T14:35:35.842Z,92810.79
2018-06-05T14:38:03.830Z,92808.67
2018-06-05T14:40:31.890Z,92814.75
2018-06-05T14:43:00.099Z,92817.69
2018-06-05T14:45:28.215Z,92808.07
2018-06-05T14:47:56.228Z,92808.52
2018-06-05T14:50:24.369Z,92813.05
2018-06-05T14:52:52.504Z,92812.48
2018-06-05T14:55:20.579Z,92812.99
2018-06-05T14:57:48.616Z,92819.91
2018-06-05T15:00:16.632Z,92823.53
2018-06-05T15:02:44.987Z,92823.06
2018-06-05T15:05:13.324Z,92831.80
2018-06-05T15:07:41.352Z,92827.13
2018-06-05T15:10:09.364Z,92829.85
2018-06-05T15:12:37.383Z,92827.84
2018-06-05T15:15:05.784Z,92832.68
2018-06-05T15:17:33.874Z,92833.70
2018-06-05T15:20:01.888Z,92837.01
2018-06-05T15:22:29.975Z,92833.73
2018-06-05T15:24:58.877Z,92831.56
2018-06-05T15:27:27.635Z,92839.08
2018-06-05T15:29:55.807Z,92832.02
2018-06-05T15:32:23.857Z,92833.11
2018-06-05T15:34:51.971Z,92835.41
2018-06-05T15:37:19.932Z,92833.30
2018-06-05T15:39:47.967Z,92838.34
2018-06-05T15:42:15.975Z,92845.52
2018-06-05T15:44:44.027Z,92847.14
2018-06-05T15:47:12.039Z,92846.53
2018-06-05T15:49:40.053Z,92846.70
2018-06-05T15:52:08.081Z,92842.88
2018-06-05T15:54:36.091Z,92840.83
2018-06-05T15:57:04.166Z,92836.86
2018-06-05T15:59:32.229Z,92839.97
2018-06-05T16:02:00.323Z,92835.16
2018-06-05T16:04:28.372Z,92838.34
2018-06-05T16:06:56.365Z,92841.73
2018-06-05T16:09:24.507Z,92841.83
2018-06-05T16:11:52.526Z,92838.75
2018-06-05T16:14:20.580Z,92843.42
2018-06-05T16:16:48.672Z,92853.43
2018-06-05T16:19:16.730Z,92848.83
2018-06-05T16:21:44.903Z,92847.89
2018-06-05T16:24:12.881Z,92852.00
2018-06-05T16:26:40.917Z,92847.80
2018-06-05T16:29:09.031Z,92851.02
2018-06-05T16:31:37.066Z,92852.34
2018-06-05T16:34:05.195Z,92848.34
2018-06-05T16:36:33.302Z,92858.81
2018-06-05T16:39:01.348Z,92852.19
2018-06-05T16:41:29.621Z,92853.35
2018-06-05T16:43:57.796Z,92854.56
2018-06-05T16:46:25.976Z,92857.76
2018-06-05T16:48:54.024Z,92865.43
2018-06-05T16:51:22.190Z,92858.55
2018-06-05T16:53:50.352Z,92856.61
2018-06-05T16:56:18.532Z,92860.92
2018-06-05T16:58:46.601Z,92858.78
2018-06-05T17:01:14.817Z,92860.08
2018-06-05T17:03:43.060Z,92861.95
2018-06-05T17:06:11.164Z,92866.61
2018-06-05T17:08:39.317Z,92869.72
2018-06-05T17:11:07.404Z,92869.19
2018-06-05T17:13:35.569Z,92865.84
2018-06-05T17:16:03.809Z,92874.14
2018-06-05T17:18:31.990Z,92878.21
2018-06-05T17:21:00.491Z,92879.63
2018-06-05T17:23:28.622Z,92877.41
2018-06-05T17:25:56.810Z,92886.44
2018-06-05T17:28:24.895Z,92886.11
2018-06-05T17:30:53.021Z,92887.30
2018-06-05T17:33:21.145Z,92882.13
2018-06-05T17:35:49.325Z,92886.64
2018-06-05T17:38:17.489Z,92889.00
2018-06-05T17:40:45.559Z,92887.72
2018-06-05T17:43:13.772Z,92891.52
2018-06-05T17:45:43.596Z,92895.15
2018-06-05T17:48:11.707Z,92903.23
2018-06-05T17:50:40.064Z,92903.28
2018-06-05T17:53:08.204Z,92911.34
2018-06-05T17:55:36.367Z,92901.00
2018-06-05T17:58:04.586Z,92911.20
2018-06-05T18:00:32.862Z,92913.65
2018-06-05T18:03:00.905Z,92920.89
2018-06-05T18:05:29.191Z,92924.61
2018-06-05T18:07:57.342Z,92920.31
2018-06-05T18:10:25.768Z,92925.73
2018-06-05T18:12:53.949Z,92928.05
2018-06-05T18:15:22.119Z,92935.75
2018-06-05T18:17:50.284Z,92934.73
2018-06-05T18:20:18.605Z,92935.02
2018-06-05T18:22:46.811Z,92938.59
2018-06-05T18:25:15.317Z,92935.29
2018-06-05T18:27:43.631Z,92944.47
2018-06-05T18:30:11.746Z,92965.66
2018-06-05T18:32:39.870Z,92972.71
2018-06-05T18:35:07.986Z,92979.08
2018-06-05T18:37:36.295Z,92982.24
2018-06-05T18:40:04.529Z,92986.02
2018-06-05T18:42:32.670Z,92987.13
2018-06-05T18:45:00.742Z,92988.39
2018-06-05T18:47:29.109Z,92994.89
2018-06-05T18:49:57.384Z,92994.23
2018-06-05T18:52:25.487Z,93001.02
2018-06-05T18:54:53.618Z,93004.50
2018-06-05T18:57:21.856Z,93006.68
2018-06-05T18:59:50.140Z,92999.37
2018-06-05T19:02:18.436Z,93008.39
2018-06-05T19:04:46.636Z,93008.26
2018-06-05T19:07:14.942Z,93007.08
2018-06-05T19:09:43.275Z,93011.98
2018-06-05T19:12:11.483Z,93011.81
2018-06-05T19:14:39.697Z,93009.19
2018-06-05T19:17:07.846Z,93016.70
2018-06-05T19:19:36.155Z,93007.05
2018-06-05T19:22:04.184Z,93004.87
2018-06-05T19:24:32.504Z,93009.38
2018-06-05T19:27:00.857Z,93016.39
2018-06-05T19:29:28.960Z,93013.03
2018-06-05T19:31:57.148Z,93012.19
2018-06-05T19:34:25.405Z,93016.89
2018-06-05T19:36:53.641Z,93012.70
2018-06-05T19:39:21.768Z,93017.72
2018-06-05T19:41:49.957Z,93020.70
2018-06-05T19:44:18.124Z,93021.95
2018-06-05T19:46:46.445Z,93016.12
2018-06-05T19:49:14.721Z,93014.56
2018-06-05T19:51:43.055Z,93017.73
2018-06-05T19:54:11.396Z,93020.09
2018-06-05T19:56:39.674Z,93028.83
2018-06-05T19:59:08.025Z,93030.56
2018-06-05T20:01:36.363Z,93033.69
2018-06-05T20:04:04.658Z,93036.69
2018-06-05T20:06:32.889Z,93035.50
2018-06-05T20:09:01.198Z,93038.06
2018-06-05T20:11:29.430Z,93040.14
2018-06-05T20:13:57.715Z,93037.61
2018-06-05T20:16:26.019Z,93046.61
2018-06-05T20:18:54.309Z,93048.23
2018-06-05T20:21:22.467Z,93057.02
2018-06-05T20:23:50.830Z,93054.48
2018-06-05T20:26:18.990Z,93056.20
2018-06-05T20:28:47.161Z,93056.87
2018-06-05T20:31:15.324Z,93057.42
2018-06-05T20:33:43.446Z,93061.80
2018-06-05T20:36:11.630Z,93061.27
2018-06-05T20:38:39.723Z,93071.21
2018-06-05T20:41:07.866Z,93075.83
2018-06-05T20:43:35.974Z,93072.28
2018-06-05T20:46:04.034Z,93074.82
2018-06-05T20:48:32.141Z,93076.43
2018-06-05T20:51:00.268Z,93083.53
2018-06-05T20:53:28.449Z,93077.61
2018-06-05T20:55:56.510Z,93079.46
2018-06-05T20:58:24.650Z,93083.06
2018-06-05T21:00:52.880Z,93087.14
2018-06-05T21:03:21.085Z,93094.95
2018-06-05T21:05:49.456Z,93096.60
2018-06-05T21:08:17.574Z,93099.80
2018-06-05T21:10:45.628Z,93099.59
2018-06-05T21:13:13.690Z,93104.75
2018-06-05T21:15:41.764Z,93104.39
2018-06-05T21:18:09.791Z,93108.32
2018-06-05T21:20:37.880Z,93104.25
2018-06-05T21:23:06.176Z,93102.26
2018-06-05T21:25:34.252Z,93101.09
2018-06-05T21:28:02.282Z,93098.54
2018-06-05T21:30:30.331Z,93098.18
2018-06-05T21:32:58.359Z,93093.70
2018-06-05T21:35:26.353Z,93092.74
2018-06-05T21:37:54.396Z,93096.25
2018-06-05T21:40:22.413Z,93094.94
2018-06-05T21:42:50.421Z,93089.30
2018-06-05T21:45:18.521Z,93091.77
2018-06-05T21:47:46.588Z,93087.83
2018-06-05T21:50:14.702Z,93089.08
2018-06-05T21:52:42.703Z,93085.70
2018-06-05T21:55:11.013Z,93088.39
2018-06-05T21:57:39.063Z,93093.56
2018-06-05T22:00:07.151Z,93093.14
2018-06-05T22:02:35.219Z,93097.30
2018-06-05T22:05:03.280Z,93099.62
2018-06-05T22:07:31.318Z,93098.38
2018-06-05T22:09:59.292Z,93098.30
2018-06-05T22:12:27.319Z,93097.48
2018-06-05T22:14:55.338Z,93096.07
2018-06-05T22:17:23.292Z,93095.74
2018-06-05T22:19:51.294Z,93100.78
2018-06-05T22:22:19.257Z,93097.93
2018-06-05T22:24:47.386Z,93097.17
2018-06-05T22:27:15.365Z,93098.66
2018-06-05T22:29:43.354Z,93097.64
2018-06-05T22:32:11.432Z,93102.44
2018-06-05T22:34:39.477Z,93102.77
2018-06-05T22:37:07.483Z,93104.77
2018-06-05T22:39:35.477Z,93106.44
2018-06-05T22:42:03.478Z,93108.56
2018-06-05T22:44:31.505Z,93103.87
2018-06-05T22:46:59.530Z,93107.36
2018-06-05T22:49:27.556Z,93111.57
2018-06-05T22:51:55.585Z,93121.47
2018-06-05T22:54:23.606Z,93118.54
2018-06-05T22:56:51.618Z,93120.09
2018-06-05T22:59:19.711Z,93120.84
2018-06-05T23:01:47.687Z,93118.14
2018-06-05T23:04:15.749Z,93116.34
2018-06-05T23:06:43.785Z,93117.16
2018-06-05T23:09:11.791Z,93127.06
2018-06-05T23:11:39.736Z,93129.38
2018-06-05T23:14:07.763Z,93127.09
2018-06-05T23:16:35.786Z,93119.70
2018-06-05T23:19:03.854Z,93120.06
2018-06-05T23:21:31.920Z,93121.79
2018-06-05T23:23:59.960Z,93123.95
2018-06-05T23:26:27.997Z,93117.30
2018-06-05T23:28:55.979Z,93120.84
2018-06-05T23:31:23.941Z,93122.52
2018-06-05T23:33:51.948Z,93119.01
2018-06-05T23:36:19.935Z,93120.44
2018-06-05T23:38:48.018Z,93124.61
2018-06-05T23:41:16.166Z,93125.70
2018-06-05T23:43:44.164Z,93131.19
2018-06-05T23:46:12.218Z,93127.26
2018-06-05T23:48:40.308Z,93132.56
2018-06-05T23:51:08.277Z,93125.33
2018-06-05T23:53:36.369Z,93137.37
2018-06-05T23:56:04.490Z,93142.53
2018-06-05T23:58:32.453Z,93135.35
